createdAt,value
2019-06-27T00:00:17.028Z,3.93
2019-06-27T00:02:46.189Z,4.10
2019-06-27T00:05:15.566Z,4.20
2019-06-27T00:07:45.243Z,3.70
2019-06-27T00:10:14.524Z,5.10
2019-06-27T00:12:43.735Z,3.90
2019-06-27T00:15:13.498Z,4.37
2019-06-27T00:17:42.655Z,5.53
2019-06-27T00:20:12.154Z,4.53
2019-06-27T00:22:41.483Z,5.00
2019-06-27T00:25:11.092Z,4.73
2019-06-27T00:27:40.190Z,4.40
2019-06-27T00:30:09.812Z,5.10
2019-06-27T00:32:39.080Z,4.87
2019-06-27T00:35:08.505Z,5.30
2019-06-27T00:37:37.660Z,5.00
2019-06-27T00:40:07.206Z,5.33
2019-06-27T00:42:36.450Z,5.27
2019-06-27T00:45:06.103Z,5.77
2019-06-27T00:47:35.352Z,4.90
2019-06-27T00:50:05.939Z,5.40
2019-06-27T00:52:35.234Z,4.70
2019-06-27T00:55:04.836Z,4.97
2019-06-27T00:57:34.074Z,5.30
2019-06-27T01:00:03.317Z,4.63
2019-06-27T01:02:32.548Z,6.43
2019-06-27T01:05:01.579Z,6.20
2019-06-27T01:07:30.990Z,5.60
2019-06-27T01:10:01.301Z,6.20
2019-06-27T01:12:30.505Z,5.40
2019-06-27T01:14:59.707Z,6.70
2019-06-27T01:17:28.778Z,6.60
2019-06-27T01:19:57.897Z,6.30
2019-06-27T01:22:27.093Z,6.00
2019-06-27T01:24:56.356Z,6.50
2019-06-27T01:27:29.959Z,5.77
2019-06-27T01:29:56.472Z,6.53
2019-06-27T01:32:25.718Z,6.60
2019-06-27T01:34:54.827Z,6.40
2019-06-27T01:37:24.083Z,6.20
2019-06-27T01:39:53.228Z,6.20
2019-06-27T01:42:22.547Z,5.80
2019-06-27T01:44:59.144Z,5.60
2019-06-27T01:47:28.340Z,6.83
2019-06-27T01:49:57.598Z,6.23
2019-06-27T01:52:26.815Z,6.60
2019-06-27T01:54:56.006Z,6.00
2019-06-27T01:57:25.112Z,6.10
2019-06-27T01:59:54.313Z,5.50
2019-06-27T02:02:23.492Z,6.10
2019-06-27T02:04:52.671Z,5.90
2019-06-27T02:07:21.803Z,5.33
2019-06-27T02:09:50.948Z,6.87
2019-06-27T02:12:20.265Z,5.47
2019-06-27T02:14:49.446Z,5.50
2019-06-27T02:17:18.645Z,5.30
2019-06-27T02:19:47.940Z,5.90
2019-06-27T02:22:17.577Z,4.90
2019-06-27T02:24:46.676Z,6.10
2019-06-27T02:27:15.934Z,5.30
2019-06-27T02:29:45.253Z,5.50
2019-06-27T02:32:14.548Z,5.23
2019-06-27T02:34:43.803Z,4.87
2019-06-27T02:37:12.865Z,5.20
2019-06-27T02:39:42.013Z,5.43
2019-06-27T02:42:11.191Z,5.40
2019-06-27T02:44:40.464Z,7.40
2019-06-27T02:47:09.770Z,6.00
2019-06-27T02:49:38.960Z,5.40
2019-06-27T02:52:08.144Z,5.83
2019-06-27T02:54:37.382Z,5.40
2019-06-27T02:57:06.515Z,5.20
2019-06-27T02:59:35.714Z,6.20
2019-06-27T03:02:05.474Z,5.50
2019-06-27T03:04:34.826Z,5.50
2019-06-27T03:07:04.654Z,5.50
2019-06-27T03:09:34.390Z,5.40
2019-06-27T03:12:04.000Z,6.10
2019-06-27T03:14:34.037Z,5.50
2019-06-27T03:17:03.594Z,5.57
2019-06-27T03:19:33.295Z,5.10
2019-06-27T03:22:05.819Z,5.20
2019-06-27T03:24:33.813Z,5.50
2019-06-27T03:27:03.280Z,6.10
2019-06-27T03:29:32.686Z,5.80
2019-06-27T03:32:02.087Z,5.60
2019-06-27T03:34:31.793Z,5.30
2019-06-27T03:37:01.291Z,6.07
2019-06-27T03:39:30.842Z,6.10
2019-06-27T03:42:00.038Z,5.73
2019-06-27T03:44:29.340Z,5.57
2019-06-27T03:46:58.914Z,5.80
2019-06-27T03:49:28.418Z,5.57
2019-06-27T03:51:57.868Z,6.23
2019-06-27T03:54:27.125Z,5.53
2019-06-27T03:56:56.426Z,6.43
2019-06-27T03:59:25.655Z,5.80
2019-06-27T04:01:54.958Z,5.17
2019-06-27T04:04:26.171Z,5.33
2019-06-27T04:06:55.883Z,6.23
2019-06-27T04:09:25.407Z,5.13
2019-06-27T04:11:54.719Z,5.27
2019-06-27T04:14:24.124Z,5.73
2019-06-27T04:16:53.703Z,6.57
2019-06-27T04:19:22.930Z,5.63
2019-06-27T04:21:52.229Z,5.30
2019-06-27T04:24:22.248Z,5.70
2019-06-27T04:26:52.467Z,4.93
2019-06-27T04:29:33.545Z,5.50
2019-06-27T04:31:53.392Z,5.57
2019-06-27T04:34:23.237Z,4.90
2019-06-27T04:36:52.705Z,5.80
2019-06-27T04:39:22.423Z,5.70
2019-06-27T04:41:51.923Z,5.67
2019-06-27T04:44:21.670Z,6.30
2019-06-27T04:46:51.276Z,6.20
2019-06-27T04:49:20.986Z,5.40
2019-06-27T04:51:50.636Z,5.70
2019-06-27T04:54:20.408Z,5.43
2019-06-27T04:56:50.423Z,5.00
2019-06-27T04:59:20.217Z,6.30
2019-06-27T05:01:50.153Z,5.87
2019-06-27T05:04:19.865Z,5.87
2019-06-27T05:06:49.407Z,5.63
2019-06-27T05:09:18.873Z,5.93
2019-06-27T05:11:48.378Z,6.13
2019-06-27T05:14:17.944Z,5.50
2019-06-27T05:16:47.972Z,5.63
2019-06-27T05:19:17.405Z,5.60
2019-06-27T05:21:47.271Z,5.30
2019-06-27T05:24:17.004Z,6.23
2019-06-27T05:26:46.606Z,5.30
2019-06-27T05:29:16.150Z,5.13
2019-06-27T05:31:45.822Z,5.27
2019-06-27T05:34:15.564Z,4.73
2019-06-27T05:36:44.878Z,5.27
2019-06-27T05:39:14.435Z,5.50
2019-06-27T05:41:44.044Z,5.40
2019-06-27T05:44:13.775Z,4.97
2019-06-27T05:46:43.482Z,5.27
2019-06-27T05:49:12.798Z,5.87
2019-06-27T05:51:42.454Z,6.00
2019-06-27T05:54:12.499Z,5.60
2019-06-27T05:56:42.075Z,4.60
2019-06-27T05:59:11.484Z,5.17
2019-06-27T06:01:41.216Z,4.50
2019-06-27T06:04:10.548Z,5.57
2019-06-27T06:06:39.920Z,4.70
2019-06-27T06:09:09.164Z,4.23
2019-06-27T06:11:38.317Z,5.37
2019-06-27T06:14:07.381Z,5.03
2019-06-27T06:16:36.602Z,4.43
2019-06-27T06:19:05.803Z,6.07
2019-06-27T06:21:34.938Z,6.37
2019-06-27T06:24:03.991Z,4.50
2019-06-27T06:26:33.087Z,6.50
2019-06-27T06:29:02.328Z,5.93
2019-06-27T06:31:31.585Z,5.30
2019-06-27T06:34:00.863Z,5.67
2019-06-27T06:36:30.121Z,6.23
2019-06-27T06:38:59.218Z,5.93
2019-06-27T06:41:28.416Z,6.60
2019-06-27T06:43:57.345Z,6.60
2019-06-27T06:46:26.509Z,7.10
2019-06-27T06:48:55.747Z,6.00
2019-06-27T06:51:25.006Z,7.10
2019-06-27T06:53:54.229Z,6.60
2019-06-27T06:56:23.478Z,5.87
2019-06-27T06:58:52.855Z,7.57
2019-06-27T07:01:21.824Z,6.73
2019-06-27T07:03:51.548Z,6.70
2019-06-27T07:06:20.793Z,6.97
2019-06-27T07:08:49.988Z,6.93
2019-06-27T07:11:19.171Z,6.37
2019-06-27T07:13:48.444Z,6.73
2019-06-27T07:16:17.619Z,6.27
2019-06-27T07:18:46.921Z,5.60
2019-06-27T07:21:16.158Z,6.33
2019-06-27T07:23:45.126Z,5.13
2019-06-27T07:26:14.489Z,5.23
2019-06-27T07:28:43.611Z,5.70
2019-06-27T07:31:17.770Z,6.77
2019-06-27T07:33:43.688Z,5.93
2019-06-27T07:36:12.855Z,5.87
2019-06-27T07:38:41.928Z,5.67
2019-06-27T07:41:11.084Z,5.40
2019-06-27T07:43:40.083Z,5.80
2019-06-27T07:46:24.075Z,5.10
2019-06-27T07:48:39.996Z,6.33
2019-06-27T07:51:09.131Z,5.63
2019-06-27T07:53:38.503Z,6.50
2019-06-27T07:56:07.473Z,6.50
2019-06-27T07:58:36.562Z,5.80
2019-06-27T08:01:05.666Z,5.73
2019-06-27T08:03:34.611Z,7.00
2019-06-27T08:06:03.679Z,5.97
2019-06-27T08:08:32.768Z,6.90
2019-06-27T08:11:01.823Z,6.20
2019-06-27T08:13:30.897Z,5.90
2019-06-27T08:15:59.989Z,6.23
2019-06-27T08:18:29.057Z,7.60
2019-06-27T08:20:58.227Z,5.57
2019-06-27T08:23:40.934Z,6.70
2019-06-27T08:25:58.237Z,7.93
2019-06-27T08:28:27.380Z,5.90
2019-06-27T08:30:56.657Z,4.93
2019-06-27T08:33:26.122Z,5.53
2019-06-27T08:35:55.078Z,5.90
2019-06-27T08:38:24.055Z,6.53
2019-06-27T08:40:53.172Z,6.40
2019-06-27T08:43:22.306Z,6.20
2019-06-27T08:45:51.317Z,5.40
2019-06-27T08:48:20.346Z,5.53
2019-06-27T08:50:49.317Z,5.90
2019-06-27T08:53:18.800Z,5.03
2019-06-27T08:55:47.710Z,5.87
2019-06-27T08:58:16.640Z,6.53
2019-06-27T09:00:46.063Z,6.43
2019-06-27T09:03:15.223Z,4.93
2019-06-27T09:05:44.252Z,4.93
2019-06-27T09:08:13.172Z,5.70
2019-06-27T09:10:42.215Z,6.07
2019-06-27T09:13:11.206Z,5.90
2019-06-27T09:15:40.334Z,5.83
2019-06-27T09:18:09.397Z,4.77
2019-06-27T09:20:38.357Z,5.23
2019-06-27T09:23:07.381Z,4.43
2019-06-27T09:25:36.357Z,4.77
2019-06-27T09:28:05.418Z,4.27
2019-06-27T09:30:34.525Z,4.50
2019-06-27T09:33:03.556Z,4.03
2019-06-27T09:35:32.600Z,5.00
2019-06-27T09:38:01.680Z,4.10
2019-06-27T09:40:30.696Z,3.70
2019-06-27T09:42:59.923Z,4.50
2019-06-27T09:45:29.053Z,5.60
2019-06-27T09:47:58.289Z,4.80
2019-06-27T09:50:27.592Z,4.57
2019-06-27T09:52:56.894Z,4.77
2019-06-27T09:55:25.967Z,4.30
2019-06-27T09:57:54.935Z,4.27
2019-06-27T10:00:26.824Z,3.30
2019-06-27T10:02:56.048Z,3.83
2019-06-27T10:05:25.200Z,3.53
2019-06-27T10:07:54.598Z,4.00
2019-06-27T10:10:23.714Z,4.20
2019-06-27T10:12:52.989Z,3.77
2019-06-27T10:15:22.240Z,5.20
2019-06-27T10:17:51.285Z,3.93
2019-06-27T10:20:20.430Z,5.07
2019-06-27T10:22:49.778Z,4.40
2019-06-27T10:25:18.903Z,3.90
2019-06-27T10:27:48.204Z,3.13
2019-06-27T10:30:20.495Z,3.63
2019-06-27T10:32:59.159Z,3.80
2019-06-27T10:35:20.709Z,4.27
2019-06-27T10:37:49.810Z,3.60
2019-06-27T10:40:20.236Z,3.73
2019-06-27T10:42:49.343Z,3.30
2019-06-27T10:45:18.604Z,3.73
2019-06-27T10:47:47.692Z,4.07
2019-06-27T10:50:17.103Z,3.67
2019-06-27T10:52:46.547Z,3.70
2019-06-27T10:55:15.577Z,3.70
2019-06-27T10:57:44.701Z,4.30
2019-06-27T11:00:14.681Z,3.97
2019-06-27T11:02:43.714Z,3.40
2019-06-27T11:05:13.024Z,4.00
2019-06-27T11:07:42.154Z,4.57
2019-06-27T11:10:11.706Z,4.20
2019-06-27T11:12:40.633Z,4.03
2019-06-27T11:15:10.054Z,4.17
2019-06-27T11:17:39.258Z,3.87
2019-06-27T11:20:08.726Z,3.97
2019-06-27T11:22:38.122Z,4.73
2019-06-27T11:25:07.298Z,3.80
2019-06-27T11:27:36.603Z,3.50
2019-06-27T11:30:07.077Z,4.07
2019-06-27T11:32:36.091Z,3.30
2019-06-27T11:35:05.181Z,3.40
2019-06-27T11:37:34.335Z,3.60
2019-06-27T11:40:03.554Z,4.00
2019-06-27T11:42:32.818Z,3.20
2019-06-27T11:45:02.082Z,2.97
2019-06-27T11:47:34.364Z,3.50
2019-06-27T11:50:02.632Z,2.90
2019-06-27T11:52:32.071Z,3.70
2019-06-27T11:55:01.278Z,3.93
2019-06-27T11:57:30.607Z,3.20
2019-06-27T11:59:59.774Z,3.17
2019-06-27T12:02:29.083Z,3.50
2019-06-27T12:04:58.483Z,2.83
2019-06-27T12:07:27.870Z,2.93
2019-06-27T12:09:57.015Z,3.77
2019-06-27T12:12:26.070Z,3.33
2019-06-27T12:14:55.251Z,2.70
2019-06-27T12:17:24.702Z,3.53
2019-06-27T12:19:53.754Z,3.03
2019-06-27T12:22:22.961Z,2.80
2019-06-27T12:24:52.133Z,2.93
2019-06-27T12:27:21.877Z,3.77
2019-06-27T12:29:51.216Z,3.00
2019-06-27T12:32:20.368Z,2.80
2019-06-27T12:34:49.747Z,2.77
2019-06-27T12:37:18.736Z,3.10
2019-06-27T12:39:47.879Z,3.00
2019-06-27T12:42:31.565Z,3.50
2019-06-27T12:44:48.000Z,3.30
2019-06-27T12:47:17.355Z,3.63
2019-06-27T12:50:01.331Z,3.10
2019-06-27T12:52:17.254Z,3.30
2019-06-27T12:54:46.500Z,3.20
2019-06-27T12:57:15.617Z,3.00
2019-06-27T12:59:44.638Z,3.10
2019-06-27T13:02:13.798Z,2.70
2019-06-27T13:04:43.388Z,3.10
2019-06-27T13:07:12.493Z,2.97
2019-06-27T13:09:41.652Z,2.97
2019-06-27T13:12:10.855Z,2.40
2019-06-27T13:14:39.973Z,2.37
2019-06-27T13:17:09.028Z,2.83
2019-06-27T13:19:39.767Z,2.20
2019-06-27T13:22:09.352Z,3.70
2019-06-27T13:24:38.662Z,2.30
2019-06-27T13:27:07.998Z,2.60
2019-06-27T13:29:37.241Z,2.37
2019-06-27T13:32:06.665Z,3.07
2019-06-27T13:34:40.561Z,3.27
2019-06-27T13:37:06.880Z,2.70
2019-06-27T13:39:36.170Z,3.10
2019-06-27T13:42:05.552Z,3.13
2019-06-27T13:44:34.584Z,2.13
2019-06-27T13:47:03.796Z,2.47
2019-06-27T13:49:33.014Z,2.77
2019-06-27T13:52:02.015Z,2.27
2019-06-27T13:54:31.283Z,1.90
2019-06-27T13:57:00.481Z,2.37
2019-06-27T13:59:29.987Z,2.90
2019-06-27T14:01:59.261Z,2.50
2019-06-27T14:04:28.425Z,2.87
2019-06-27T14:06:57.682Z,2.30
2019-06-27T14:09:26.871Z,2.47
2019-06-27T14:11:56.954Z,2.47
2019-06-27T14:14:26.163Z,2.20
2019-06-27T14:16:55.660Z,2.20
2019-06-27T14:19:25.163Z,3.07
2019-06-27T14:21:58.690Z,2.40
2019-06-27T14:24:26.158Z,2.67
2019-06-27T14:26:55.670Z,2.60
2019-06-27T14:29:24.858Z,2.67
2019-06-27T14:31:54.227Z,2.10
2019-06-27T14:34:23.571Z,2.80
2019-06-27T14:36:54.454Z,2.53
2019-06-27T14:39:24.288Z,2.47
2019-06-27T14:41:53.512Z,1.97
2019-06-27T14:44:22.922Z,2.40
2019-06-27T14:46:52.347Z,2.67
2019-06-27T14:49:21.687Z,2.20
2019-06-27T14:51:50.929Z,2.70
2019-06-27T14:54:20.120Z,2.80
2019-06-27T14:56:49.380Z,2.93
2019-06-27T14:59:18.589Z,2.80
2019-06-27T15:01:47.823Z,2.83
2019-06-27T15:04:17.336Z,3.07
2019-06-27T15:06:46.735Z,3.00
2019-06-27T15:09:15.923Z,2.93
2019-06-27T15:11:45.018Z,2.30
2019-06-27T15:14:14.726Z,2.30
2019-06-27T15:16:43.936Z,2.00
2019-06-27T15:19:13.339Z,2.57
2019-06-27T15:21:42.712Z,3.67
2019-06-27T15:24:12.007Z,2.40
2019-06-27T15:26:41.485Z,3.00
2019-06-27T15:29:11.360Z,2.47
2019-06-27T15:31:40.767Z,2.73
2019-06-27T15:34:10.534Z,2.63
2019-06-27T15:36:39.773Z,2.10
2019-06-27T15:39:11.891Z,2.70
2019-06-27T15:41:39.700Z,2.70
2019-06-27T15:44:09.206Z,2.47
2019-06-27T15:46:40.013Z,2.53
2019-06-27T15:49:09.757Z,2.40
2019-06-27T15:51:38.820Z,2.43
2019-06-27T15:54:08.012Z,2.53
2019-06-27T15:56:37.969Z,2.73
2019-06-27T15:59:07.165Z,2.57
2019-06-27T16:01:37.120Z,2.47
2019-06-27T16:04:06.278Z,3.50
2019-06-27T16:06:35.527Z,2.30
2019-06-27T16:09:06.161Z,3.00
2019-06-27T16:11:35.198Z,3.10
2019-06-27T16:14:04.447Z,2.27
2019-06-27T16:16:33.646Z,2.40
2019-06-27T16:19:02.965Z,2.77
2019-06-27T16:21:32.149Z,2.77
2019-06-27T16:24:01.254Z,2.57
2019-06-27T16:26:45.856Z,2.40
2019-06-27T16:29:15.052Z,2.80
2019-06-27T16:31:45.514Z,1.60
2019-06-27T16:34:14.675Z,2.40
2019-06-27T16:36:43.733Z,2.37
2019-06-27T16:39:12.978Z,2.00
2019-06-27T16:41:42.234Z,2.40
2019-06-27T16:44:11.521Z,3.00
2019-06-27T16:46:40.874Z,2.37
2019-06-27T16:49:09.984Z,2.10
2019-06-27T16:51:39.014Z,2.30
2019-06-27T16:54:08.033Z,2.63
2019-06-27T16:56:37.213Z,2.43
2019-06-27T16:59:06.549Z,2.50
2019-06-27T17:01:35.688Z,2.77
2019-06-27T17:04:04.723Z,2.17
2019-06-27T17:06:42.223Z,2.70
2019-06-27T17:09:05.936Z,2.50
2019-06-27T17:11:35.194Z,2.43
2019-06-27T17:14:04.683Z,2.77
2019-06-27T17:16:33.921Z,2.13
2019-06-27T17:19:03.406Z,2.10
2019-06-27T17:21:32.917Z,3.10
2019-06-27T17:24:02.351Z,2.00
2019-06-27T17:26:31.491Z,2.80
2019-06-27T17:29:00.862Z,2.00
2019-06-27T17:31:30.019Z,2.40
2019-06-27T17:33:59.109Z,2.70
2019-06-27T17:36:28.691Z,2.30
2019-06-27T17:38:57.786Z,2.50
2019-06-27T17:41:26.885Z,3.00
2019-06-27T17:43:56.104Z,3.37
2019-06-27T17:46:25.439Z,2.27
2019-06-27T17:48:54.707Z,2.50
2019-06-27T17:51:23.672Z,2.20
2019-06-27T17:53:52.709Z,2.20
2019-06-27T17:56:21.841Z,1.97
2019-06-27T17:58:51.269Z,2.70
2019-06-27T18:01:20.512Z,2.37
2019-06-27T18:03:49.494Z,2.80
2019-06-27T18:06:18.626Z,3.40
2019-06-27T18:08:47.588Z,2.27
2019-06-27T18:11:16.877Z,2.37
2019-06-27T18:13:46.154Z,2.57
2019-06-27T18:16:15.178Z,2.97
2019-06-27T18:18:44.408Z,3.20
2019-06-27T18:21:13.554Z,2.83
2019-06-27T18:23:42.760Z,2.87
2019-06-27T18:26:11.843Z,2.53
2019-06-27T18:28:41.044Z,2.80
2019-06-27T18:31:10.212Z,2.90
2019-06-27T18:33:39.440Z,2.73
2019-06-27T18:36:08.665Z,2.70
2019-06-27T18:38:37.577Z,2.70
2019-06-27T18:41:06.640Z,3.03
2019-06-27T18:43:35.725Z,3.10
2019-06-27T18:46:05.006Z,2.50
2019-06-27T18:48:34.123Z,2.43
2019-06-27T18:51:03.398Z,2.77
2019-06-27T18:53:32.422Z,3.33
2019-06-27T18:56:01.806Z,2.57
2019-06-27T18:58:31.137Z,2.80
2019-06-27T19:01:00.558Z,2.40
2019-06-27T19:03:29.816Z,2.30
2019-06-27T19:05:59.435Z,1.93
2019-06-27T19:08:28.719Z,2.83
2019-06-27T19:10:58.657Z,1.90
2019-06-27T19:13:28.059Z,1.87
2019-06-27T19:15:57.344Z,1.57
2019-06-27T19:18:46.133Z,1.90
2019-06-27T19:21:21.238Z,1.83
2019-06-27T19:24:24.804Z,2.00
2019-06-27T19:26:55.197Z,1.97
2019-06-27T19:29:25.911Z,2.20
2019-06-27T19:31:55.376Z,1.90
2019-06-27T19:34:24.734Z,2.00
2019-06-27T19:36:54.210Z,1.40
2019-06-27T19:39:23.480Z,2.10
2019-06-27T19:41:52.827Z,2.00
2019-06-27T19:44:22.445Z,1.97
2019-06-27T19:46:51.728Z,1.87
2019-06-27T19:49:21.034Z,1.57
2019-06-27T19:51:50.345Z,2.00
2019-06-27T19:54:19.639Z,2.10
2019-06-27T19:56:48.850Z,2.00
2019-06-27T19:59:18.047Z,2.50
2019-06-27T20:01:47.331Z,2.23
2019-06-27T20:04:16.774Z,2.40
2019-06-27T20:06:46.255Z,3.30
2019-06-27T20:09:15.455Z,3.40
2019-06-27T20:11:44.854Z,2.40
2019-06-27T20:14:14.464Z,3.90
2019-06-27T20:16:43.969Z,3.00
2019-06-27T20:19:13.344Z,3.17
2019-06-27T20:21:42.658Z,4.03
2019-06-27T20:24:11.941Z,2.53
2019-06-27T20:26:41.215Z,2.40
2019-06-27T20:29:10.391Z,2.63
2019-06-27T20:31:39.773Z,3.10
2019-06-27T20:34:09.198Z,2.80
2019-06-27T20:36:38.542Z,3.53
2019-06-27T20:39:07.989Z,2.50
2019-06-27T20:41:37.130Z,3.43
2019-06-27T20:44:06.447Z,3.77
2019-06-27T20:46:35.610Z,4.30
2019-06-27T20:49:05.104Z,3.60
2019-06-27T20:51:34.424Z,3.63
2019-06-27T20:54:03.647Z,3.83
2019-06-27T20:56:32.926Z,3.63
2019-06-27T20:59:02.138Z,2.90
2019-06-27T21:01:31.804Z,3.67
2019-06-27T21:04:01.235Z,3.77
2019-06-27T21:06:30.323Z,3.27
2019-06-27T21:08:59.591Z,3.80
2019-06-27T21:11:28.833Z,3.40
2019-06-27T21:13:57.960Z,3.53
2019-06-27T21:16:27.049Z,3.40
2019-06-27T21:18:56.228Z,4.37
2019-06-27T21:21:25.406Z,4.10
2019-06-27T21:23:54.888Z,4.27
2019-06-27T21:26:23.926Z,4.23
2019-06-27T21:28:53.145Z,3.20
2019-06-27T21:31:22.326Z,4.57
2019-06-27T21:33:51.542Z,3.40
2019-06-27T21:36:20.719Z,3.20
2019-06-27T21:38:49.976Z,3.13
2019-06-27T21:41:19.460Z,4.13
2019-06-27T21:43:48.773Z,3.70
2019-06-27T21:46:17.895Z,3.20
2019-06-27T21:48:47.238Z,3.80
2019-06-27T21:51:16.546Z,3.57
2019-06-27T21:53:45.936Z,3.30
2019-06-27T21:56:15.025Z,3.33
2019-06-27T21:58:44.245Z,4.53
2019-06-27T22:01:13.604Z,4.33
2019-06-27T22:03:42.865Z,3.10
2019-06-27T22:06:12.100Z,3.20
2019-06-27T22:08:43.242Z,3.40
2019-06-27T22:11:12.417Z,3.00
2019-06-27T22:13:41.654Z,3.07
2019-06-27T22:16:10.825Z,3.20
2019-06-27T22:18:39.912Z,3.30
2019-06-27T22:21:09.285Z,3.50
2019-06-27T22:23:38.552Z,3.20
2019-06-27T22:26:07.787Z,3.57
2019-06-27T22:28:36.920Z,2.93
2019-06-27T22:31:06.004Z,3.80
2019-06-27T22:33:35.125Z,3.20
2019-06-27T22:36:04.405Z,3.30
2019-06-27T22:38:51.423Z,3.40
2019-06-27T22:41:38.781Z,3.63
2019-06-27T22:44:25.639Z,3.40
2019-06-27T22:47:12.735Z,3.60
2019-06-27T22:49:42.352Z,3.47
2019-06-27T22:52:36.434Z,3.47
2019-06-27T22:55:06.972Z,3.20
2019-06-27T22:57:36.226Z,4.03
2019-06-27T23:00:05.969Z,3.37
2019-06-27T23:02:35.084Z,3.77
2019-06-27T23:05:04.562Z,3.60
2019-06-27T23:07:36.042Z,3.90
2019-06-27T23:10:05.418Z,3.87
2019-06-27T23:12:34.557Z,3.10
2019-06-27T23:15:04.117Z,3.17
2019-06-27T23:17:33.350Z,4.20
2019-06-27T23:20:03.426Z,3.40
2019-06-27T23:22:33.160Z,3.83
2019-06-27T23:25:02.438Z,4.20
2019-06-27T23:27:31.746Z,3.20
2019-06-27T23:30:01.106Z,3.80
2019-06-27T23:32:30.482Z,3.43
2019-06-27T23:34:59.841Z,4.17
2019-06-27T23:37:29.140Z,3.40
2019-06-27T23:40:12.751Z,4.17
2019-06-27T23:42:29.335Z,3.63
2019-06-27T23:44:58.455Z,3.30
2019-06-27T23:47:27.596Z,3.80
2019-06-27T23:49:56.851Z,4.13
2019-06-27T23:52:26.063Z,3.27
2019-06-27T23:54:56.286Z,3.20
2019-06-27T23:57:25.529Z,3.13
2019-06-27T23:59:54.784Z,3.90
